createdAt,value
2017-12-03T00:01:06.668Z,31.95
2017-12-03T00:03:33.567Z,29.95
2017-12-03T00:06:00.488Z,29.10
2017-12-03T00:08:27.375Z,30.23
2017-12-03T00:10:55.033Z,27.15
2017-12-03T00:13:22.667Z,27.48
2017-12-03T00:15:49.524Z,29.05
2017-12-03T00:18:16.447Z,29.35
2017-12-03T00:20:43.320Z,27.58
2017-12-03T00:23:10.184Z,30.17
2017-12-03T00:25:37.078Z,28.23
2017-12-03T00:28:03.940Z,29.40
2017-12-03T00:30:30.822Z,30.62
2017-12-03T00:32:57.706Z,29.00
2017-12-03T00:35:24.564Z,28.85
2017-12-03T00:37:51.407Z,28.33
2017-12-03T00:40:18.327Z,34.03
2017-12-03T00:42:45.205Z,30.77
2017-12-03T00:45:12.100Z,32.63
2017-12-03T00:47:38.967Z,31.42
2017-12-03T00:50:05.835Z,29.00
2017-12-03T00:52:32.731Z,26.87
2017-12-03T00:54:59.615Z,30.33
2017-12-03T00:57:26.533Z,31.20
2017-12-03T00:59:53.408Z,30.40
2017-12-03T01:02:20.298Z,27.02
2017-12-03T01:04:47.195Z,26.85
2017-12-03T01:07:14.079Z,26.55
2017-12-03T01:09:40.943Z,27.05
2017-12-03T01:12:07.856Z,26.42
2017-12-03T01:14:35.508Z,25.20
2017-12-03T01:17:03.209Z,28.45
2017-12-03T01:19:30.052Z,28.15
2017-12-03T01:21:56.936Z,27.77
2017-12-03T01:24:23.828Z,25.58
2017-12-03T01:26:50.760Z,30.30
2017-12-03T01:29:18.419Z,27.10
2017-12-03T01:31:46.012Z,28.35
2017-12-03T01:34:12.892Z,27.52
2017-12-03T01:36:39.763Z,27.80
2017-12-03T01:39:07.359Z,28.52
2017-12-03T01:41:34.291Z,28.65
2017-12-03T01:44:01.175Z,28.73
2017-12-03T01:46:28.077Z,29.15
2017-12-03T01:48:55.727Z,37.88
2017-12-03T01:51:22.654Z,35.65
2017-12-03T01:53:50.292Z,30.00
2017-12-03T01:56:17.212Z,29.00
2017-12-03T01:58:44.102Z,31.08
2017-12-03T02:01:11.228Z,29.20
2017-12-03T02:03:38.121Z,29.70
2017-12-03T02:06:05.095Z,29.80
2017-12-03T02:08:32.028Z,27.42
2017-12-03T02:10:58.910Z,30.55
2017-12-03T02:13:25.835Z,26.58
2017-12-03T02:15:52.728Z,27.37
2017-12-03T02:18:20.557Z,26.17
2017-12-03T02:20:47.452Z,27.15
2017-12-03T02:23:14.320Z,31.05
2017-12-03T02:25:41.240Z,29.58
2017-12-03T02:28:08.871Z,30.17
2017-12-03T02:30:36.516Z,26.83
2017-12-03T02:33:03.447Z,31.52
2017-12-03T02:35:30.353Z,26.02
2017-12-03T02:37:57.268Z,27.60
2017-12-03T02:40:24.143Z,29.67
2017-12-03T02:42:51.765Z,32.38
2017-12-03T02:45:19.408Z,29.42
2017-12-03T02:47:46.284Z,29.73
2017-12-03T02:50:13.149Z,31.08
2017-12-03T02:52:40.788Z,31.27
2017-12-03T02:55:08.451Z,29.40
2017-12-03T02:57:35.318Z,30.27
2017-12-03T03:00:02.272Z,33.70
2017-12-03T03:02:29.188Z,28.48
2017-12-03T03:04:56.811Z,27.62
2017-12-03T03:07:23.723Z,28.80
2017-12-03T03:09:51.343Z,26.92
2017-12-03T03:12:18.225Z,28.30
2017-12-03T03:14:45.175Z,26.75
2017-12-03T03:17:12.047Z,29.15
2017-12-03T03:19:38.939Z,27.17
2017-12-03T03:22:06.585Z,25.92
2017-12-03T03:24:33.461Z,29.02
2017-12-03T03:27:00.364Z,27.65
2017-12-03T03:29:27.977Z,28.95
2017-12-03T03:31:54.872Z,26.05
2017-12-03T03:34:21.747Z,25.40
2017-12-03T03:36:49.411Z,25.90
2017-12-03T03:39:16.332Z,27.27
2017-12-03T03:41:43.961Z,25.27
2017-12-03T03:44:10.885Z,23.30
2017-12-03T03:46:37.842Z,24.05
2017-12-03T03:49:04.697Z,24.33
2017-12-03T03:51:31.632Z,22.92
2017-12-03T03:53:58.536Z,23.15
2017-12-03T03:56:25.484Z,25.48
2017-12-03T03:58:52.395Z,23.33
2017-12-03T04:01:19.290Z,22.20
2017-12-03T04:03:46.192Z,22.58
2017-12-03T04:06:13.848Z,22.85
2017-12-03T04:08:40.756Z,24.40
2017-12-03T04:11:07.694Z,20.45
2017-12-03T04:13:34.584Z,23.35
2017-12-03T04:16:02.256Z,23.30
2017-12-03T04:18:29.196Z,22.70
2017-12-03T04:20:56.050Z,23.70
2017-12-03T04:23:23.652Z,23.60
2017-12-03T04:25:50.555Z,22.25
2017-12-03T04:28:18.162Z,21.05
2017-12-03T04:30:45.032Z,22.10
2017-12-03T04:33:11.883Z,22.42
2017-12-03T04:35:38.888Z,21.42
2017-12-03T04:38:06.618Z,22.60
2017-12-03T04:40:34.280Z,21.35
2017-12-03T04:43:01.225Z,20.65
2017-12-03T04:45:28.156Z,21.85
2017-12-03T04:47:55.096Z,21.55
2017-12-03T04:50:21.995Z,23.27
2017-12-03T04:52:48.961Z,22.30
2017-12-03T04:55:15.902Z,21.40
2017-12-03T04:57:42.828Z,22.62
2017-12-03T05:00:09.764Z,20.27
2017-12-03T05:02:36.823Z,22.90
2017-12-03T05:05:04.483Z,20.42
2017-12-03T05:07:31.399Z,20.88
2017-12-03T05:09:59.018Z,23.10
2017-12-03T05:12:25.967Z,21.83
2017-12-03T05:14:52.859Z,22.98
2017-12-03T05:17:19.803Z,21.35
2017-12-03T05:19:46.736Z,22.62
2017-12-03T05:22:13.655Z,23.20
2017-12-03T05:24:40.574Z,22.85
2017-12-03T05:27:07.495Z,21.90
2017-12-03T05:29:34.455Z,23.83
2017-12-03T05:32:01.400Z,22.20
2017-12-03T05:34:28.610Z,23.10
2017-12-03T05:36:56.501Z,21.35
2017-12-03T05:39:23.434Z,22.33
2017-12-03T05:41:50.392Z,23.15
2017-12-03T05:44:17.339Z,23.73
2017-12-03T05:46:44.359Z,22.25
2017-12-03T05:49:11.395Z,22.10
2017-12-03T05:51:38.328Z,22.40
2017-12-03T05:54:05.319Z,22.80
2017-12-03T05:56:32.230Z,25.92
2017-12-03T05:59:00.392Z,25.48
2017-12-03T06:01:27.295Z,23.02
2017-12-03T06:03:54.201Z,22.70
2017-12-03T06:06:21.099Z,24.60
2017-12-03T06:08:48.031Z,21.15
2017-12-03T06:11:14.958Z,21.80
2017-12-03T06:13:41.916Z,21.73
2017-12-03T06:16:08.847Z,23.00
2017-12-03T06:18:35.904Z,22.42
2017-12-03T06:21:02.935Z,23.65
2017-12-03T06:23:29.919Z,20.48
2017-12-03T06:25:57.605Z,23.00
2017-12-03T06:28:25.296Z,20.98
2017-12-03T06:30:52.251Z,21.48
2017-12-03T06:33:19.220Z,23.17
2017-12-03T06:35:46.167Z,21.05
2017-12-03T06:38:13.040Z,19.65
2017-12-03T06:40:41.040Z,22.20
2017-12-03T06:43:08.072Z,20.30
2017-12-03T06:45:35.768Z,21.90
2017-12-03T06:48:03.432Z,21.30
2017-12-03T06:50:30.356Z,19.87
2017-12-03T06:52:57.292Z,20.58
2017-12-03T06:55:24.984Z,19.00
2017-12-03T06:57:52.157Z,20.77
2017-12-03T07:00:19.146Z,20.73
2017-12-03T07:02:46.056Z,22.45
2017-12-03T07:05:13.052Z,21.85
2017-12-03T07:07:40.718Z,19.65
2017-12-03T07:10:08.407Z,22.90
2017-12-03T07:12:35.547Z,22.55
2017-12-03T07:15:02.554Z,22.85
2017-12-03T07:17:30.203Z,23.23
2017-12-03T07:19:57.146Z,23.20
2017-12-03T07:22:24.109Z,24.10
2017-12-03T07:24:51.795Z,25.35
2017-12-03T07:27:18.836Z,25.45
2017-12-03T07:29:46.039Z,25.23
2017-12-03T07:32:12.964Z,26.27
2017-12-03T07:34:39.903Z,24.42
2017-12-03T07:37:06.838Z,26.87
2017-12-03T07:39:34.559Z,26.00
2017-12-03T07:42:01.524Z,23.95
2017-12-03T07:44:29.260Z,27.33
2017-12-03T07:46:56.575Z,25.50
2017-12-03T07:50:43.136Z,21.23
2017-12-03T07:53:10.119Z,23.98
2017-12-03T07:55:37.391Z,25.52
2017-12-03T07:58:05.748Z,26.42
2017-12-03T08:00:34.303Z,25.75
2017-12-03T08:03:01.944Z,29.77
2017-12-03T08:05:29.685Z,26.50
2017-12-03T08:07:56.667Z,24.25
2017-12-03T08:10:24.450Z,24.33
2017-12-03T08:12:52.088Z,30.85
2017-12-03T08:15:19.739Z,25.77
2017-12-03T08:17:46.828Z,23.95
2017-12-03T08:20:13.758Z,29.90
2017-12-03T08:22:41.187Z,25.70
2017-12-03T08:25:08.164Z,24.10
2017-12-03T08:27:36.727Z,29.65
2017-12-03T08:30:04.415Z,25.98
2017-12-03T08:32:31.335Z,26.10
2017-12-03T08:34:59.035Z,23.02
2017-12-03T08:37:25.968Z,24.60
2017-12-03T08:39:52.881Z,22.13
2017-12-03T08:42:20.377Z,22.30
2017-12-03T08:44:47.272Z,22.02
2017-12-03T08:47:15.195Z,23.23
2017-12-03T08:49:42.066Z,20.23
2017-12-03T08:52:08.976Z,19.67
2017-12-03T08:54:36.033Z,20.80
2017-12-03T08:57:02.969Z,18.67
2017-12-03T08:59:29.867Z,21.45
2017-12-03T09:01:57.576Z,23.42
2017-12-03T09:04:24.490Z,21.83
2017-12-03T09:06:52.169Z,21.05
2017-12-03T09:09:19.099Z,18.00
2017-12-03T09:11:46.019Z,18.75
2017-12-03T09:14:12.963Z,18.17
2017-12-03T09:16:39.872Z,18.55
2017-12-03T09:19:06.840Z,17.80
2017-12-03T09:21:33.767Z,16.95
2017-12-03T09:24:01.467Z,19.65
2017-12-03T09:26:28.415Z,19.45
2017-12-03T09:28:56.151Z,19.75
2017-12-03T09:31:23.124Z,18.17
2017-12-03T09:33:50.776Z,17.90
2017-12-03T09:36:17.703Z,15.40
2017-12-03T09:38:45.375Z,16.55
2017-12-03T09:41:12.276Z,15.07
2017-12-03T09:43:39.224Z,17.40
2017-12-03T09:46:06.142Z,16.75
2017-12-03T09:48:33.850Z,18.65
2017-12-03T09:51:01.584Z,17.87
2017-12-03T09:53:28.495Z,17.10
2017-12-03T09:55:55.443Z,16.02
2017-12-03T09:58:23.090Z,15.68
2017-12-03T10:00:50.048Z,15.35
2017-12-03T10:03:16.970Z,13.70
2017-12-03T10:05:43.868Z,14.10
2017-12-03T10:08:10.856Z,12.48
2017-12-03T10:10:37.744Z,12.68
2017-12-03T10:13:05.439Z,11.12
2017-12-03T10:15:32.411Z,14.00
2017-12-03T10:17:59.334Z,12.93
2017-12-03T10:20:26.281Z,10.90
2017-12-03T10:22:53.277Z,12.10
2017-12-03T10:25:20.280Z,12.35
2017-12-03T10:27:48.013Z,12.40
2017-12-03T10:30:15.120Z,13.20
2017-12-03T10:32:42.186Z,12.83
2017-12-03T10:35:09.123Z,12.77
2017-12-03T10:37:36.058Z,12.30
2017-12-03T10:40:02.976Z,14.17
2017-12-03T10:42:29.876Z,12.37
2017-12-03T10:44:57.531Z,14.63
2017-12-03T10:47:25.188Z,12.80
2017-12-03T10:49:52.866Z,12.63
2017-12-03T10:52:19.887Z,12.47
2017-12-03T10:54:46.856Z,13.20
2017-12-03T10:57:13.701Z,12.87
2017-12-03T10:59:40.611Z,10.80
2017-12-03T11:02:07.582Z,13.57
2017-12-03T11:04:34.557Z,11.60
2017-12-03T11:07:01.459Z,13.10
2017-12-03T11:09:28.442Z,12.43
2017-12-03T11:11:55.353Z,12.00
2017-12-03T11:14:22.196Z,12.97
2017-12-03T11:16:49.830Z,11.33
2017-12-03T11:19:16.730Z,11.60
2017-12-03T11:21:43.642Z,12.30
2017-12-03T11:24:10.516Z,12.43
2017-12-03T11:26:37.403Z,11.73
2017-12-03T11:29:04.349Z,12.00
2017-12-03T11:31:31.288Z,12.47
2017-12-03T11:33:58.190Z,11.03
2017-12-03T11:36:25.883Z,12.90
2017-12-03T11:38:52.896Z,13.00
2017-12-03T11:41:19.815Z,12.83
2017-12-03T11:43:46.685Z,11.80
2017-12-03T11:46:13.588Z,12.73
2017-12-03T11:48:40.582Z,12.97
2017-12-03T11:51:07.498Z,12.27
2017-12-03T11:53:35.192Z,12.90
2017-12-03T11:56:02.095Z,13.80
2017-12-03T11:58:28.959Z,12.37
2017-12-03T12:00:56.648Z,12.20
2017-12-03T12:03:23.628Z,11.57
2017-12-03T12:05:51.252Z,12.43
2017-12-03T12:08:18.187Z,13.43
2017-12-03T12:10:45.059Z,12.47
2017-12-03T12:13:11.949Z,12.00
2017-12-03T12:15:39.606Z,12.13
2017-12-03T12:18:07.446Z,12.37
2017-12-03T12:20:34.460Z,11.87
2017-12-03T12:23:01.424Z,11.60
2017-12-03T12:25:28.379Z,11.97
2017-12-03T12:27:55.256Z,12.97
2017-12-03T12:30:22.128Z,12.10
2017-12-03T12:32:49.003Z,12.70
2017-12-03T12:35:16.648Z,12.67
2017-12-03T12:37:43.545Z,12.07
2017-12-03T12:40:10.472Z,12.97
2017-12-03T12:42:37.359Z,12.00
2017-12-03T12:45:05.043Z,16.57
2017-12-03T12:47:32.011Z,12.60
2017-12-03T12:49:59.823Z,13.13
2017-12-03T12:52:27.463Z,12.30
2017-12-03T12:54:54.372Z,12.20
2017-12-03T12:57:21.299Z,11.60
2017-12-03T12:59:48.227Z,11.00
2017-12-03T13:02:15.105Z,11.60
2017-12-03T13:04:42.021Z,11.70
2017-12-03T13:07:09.003Z,11.70
2017-12-03T13:09:35.894Z,11.03
2017-12-03T13:12:03.997Z,11.00
2017-12-03T13:14:31.019Z,11.17
2017-12-03T13:16:57.920Z,10.90
2017-12-03T13:19:25.530Z,12.27
2017-12-03T13:21:53.164Z,11.27
2017-12-03T13:24:20.079Z,11.50
2017-12-03T13:26:46.989Z,12.47
2017-12-03T13:29:13.876Z,11.90
2017-12-03T13:31:40.747Z,11.40
2017-12-03T13:34:08.411Z,11.00
2017-12-03T13:36:36.235Z,11.60
2017-12-03T13:39:03.382Z,12.20
2017-12-03T13:41:30.271Z,11.13
2017-12-03T13:43:57.155Z,12.17
2017-12-03T13:46:24.064Z,10.90
2017-12-03T13:48:51.038Z,12.73
2017-12-03T13:51:17.900Z,10.80
2017-12-03T13:53:44.803Z,9.80
2017-12-03T13:56:12.448Z,9.90
2017-12-03T13:58:39.360Z,10.70
2017-12-03T14:01:06.244Z,10.90
2017-12-03T14:03:33.155Z,11.27
2017-12-03T14:06:00.059Z,9.35
2017-12-03T14:08:26.967Z,10.27
2017-12-03T14:10:54.610Z,11.50
2017-12-03T14:13:21.532Z,9.95
2017-12-03T14:15:48.443Z,10.43
2017-12-03T14:18:15.353Z,9.60
2017-12-03T14:20:43.088Z,10.68
2017-12-03T14:23:10.940Z,10.75
2017-12-03T14:25:38.727Z,10.90
2017-12-03T14:28:06.476Z,9.18
2017-12-03T14:30:34.213Z,9.70
2017-12-03T14:33:01.196Z,9.80
2017-12-03T14:35:28.117Z,9.45
2017-12-03T14:37:55.039Z,10.40
2017-12-03T14:40:22.731Z,9.57
2017-12-03T14:42:49.660Z,8.98
2017-12-03T14:45:16.632Z,9.00
2017-12-03T14:47:43.663Z,9.40
2017-12-03T14:50:10.592Z,11.90
2017-12-03T14:52:37.507Z,11.45
2017-12-03T14:55:05.225Z,10.38
2017-12-03T14:57:32.183Z,9.77
2017-12-03T14:59:59.226Z,10.07
2017-12-03T15:02:26.154Z,10.38
2017-12-03T15:04:53.468Z,10.15
2017-12-03T15:07:20.619Z,10.82
2017-12-03T15:09:47.651Z,10.25
2017-12-03T15:12:14.647Z,9.98
2017-12-03T15:14:41.659Z,9.90
2017-12-03T15:17:08.808Z,10.75
2017-12-03T15:19:35.849Z,9.98
2017-12-03T15:22:02.956Z,12.15
2017-12-03T15:24:30.076Z,11.95
2017-12-03T15:26:57.136Z,12.90
2017-12-03T15:29:24.186Z,13.50
2017-12-03T15:31:52.390Z,14.02
2017-12-03T15:34:19.364Z,15.80
2017-12-03T15:36:47.379Z,22.87
2017-12-03T15:39:14.487Z,21.75
2017-12-03T15:41:42.689Z,22.20
2017-12-03T15:44:09.752Z,20.98
2017-12-03T15:46:36.839Z,21.20
2017-12-03T15:49:04.667Z,20.30
2017-12-03T15:51:32.536Z,20.02
2017-12-03T15:53:59.527Z,19.17
2017-12-03T15:56:27.552Z,20.35
2017-12-03T15:58:54.534Z,20.75
2017-12-03T16:01:21.735Z,21.48
2017-12-03T16:03:49.491Z,20.17
2017-12-03T16:06:16.418Z,21.67
2017-12-03T16:08:44.276Z,24.23
2017-12-03T16:11:11.387Z,22.90
2017-12-03T16:13:39.075Z,23.85
2017-12-03T16:16:06.231Z,22.42
2017-12-03T16:18:33.360Z,21.52
2017-12-03T16:21:00.462Z,23.62
2017-12-03T16:23:27.476Z,24.17
2017-12-03T16:25:54.741Z,23.38
2017-12-03T16:28:21.655Z,21.15
2017-12-03T16:30:48.827Z,20.52
2017-12-03T16:33:16.961Z,20.35
2017-12-03T16:35:44.107Z,20.37
2017-12-03T16:38:11.243Z,18.10
2017-12-03T16:40:38.356Z,18.45
2017-12-03T16:43:05.276Z,17.05
2017-12-03T16:45:32.479Z,17.90
2017-12-03T16:47:59.655Z,18.10
2017-12-03T16:50:26.828Z,17.75
2017-12-03T16:52:54.660Z,21.15
2017-12-03T16:55:22.391Z,23.90
2017-12-03T16:57:49.295Z,26.60
2017-12-03T17:00:16.221Z,28.77
2017-12-03T17:02:43.124Z,24.65
2017-12-03T17:05:11.143Z,24.23
2017-12-03T17:07:38.864Z,25.48
2017-12-03T17:10:06.741Z,24.95
2017-12-03T17:12:34.553Z,25.05
2017-12-03T17:15:01.676Z,21.80
2017-12-03T17:17:28.664Z,20.58
2017-12-03T17:19:55.809Z,25.40
2017-12-03T17:22:22.768Z,25.58
2017-12-03T17:24:49.802Z,24.60
2017-12-03T17:27:16.872Z,25.70
2017-12-03T17:29:44.020Z,23.95
2017-12-03T17:32:11.193Z,22.95
2017-12-03T17:34:39.196Z,25.73
2017-12-03T17:37:06.565Z,23.27
2017-12-03T17:39:33.542Z,25.98
2017-12-03T17:42:01.303Z,21.17
2017-12-03T17:47:02.792Z,24.27
2017-12-03T17:49:29.810Z,25.98
2017-12-03T17:51:56.864Z,25.10
2017-12-03T17:54:24.859Z,25.25
2017-12-03T17:56:52.499Z,27.40
2017-12-03T17:59:19.420Z,28.40
2017-12-03T18:01:46.372Z,29.67
2017-12-03T18:04:15.283Z,28.65
2017-12-03T18:06:43.012Z,26.42
2017-12-03T18:09:10.723Z,29.30
2017-12-03T18:11:37.623Z,26.70
2017-12-03T18:14:04.460Z,27.23
2017-12-03T18:16:31.329Z,25.98
2017-12-03T18:18:58.948Z,26.48
2017-12-03T18:21:25.843Z,28.25
2017-12-03T18:23:52.784Z,30.25
2017-12-03T18:26:19.763Z,31.83
2017-12-03T18:28:46.712Z,32.65
2017-12-03T18:31:14.430Z,31.73
2017-12-03T18:33:42.056Z,29.37
2017-12-03T18:36:09.121Z,23.95
2017-12-03T18:38:36.467Z,23.70
2017-12-03T18:41:05.260Z,22.62
2017-12-03T18:43:32.266Z,22.48
2017-12-03T18:45:59.227Z,21.60
2017-12-03T18:48:26.203Z,24.20
2017-12-03T18:50:53.197Z,21.73
2017-12-03T18:53:20.164Z,21.25
2017-12-03T18:55:47.351Z,21.15
2017-12-03T18:58:14.359Z,21.95
2017-12-03T19:00:41.400Z,22.95
2017-12-03T19:03:08.383Z,24.12
2017-12-03T19:05:35.396Z,22.70
2017-12-03T19:08:02.308Z,26.12
2017-12-03T19:10:29.220Z,26.92
2017-12-03T19:12:56.095Z,26.02
2017-12-03T19:15:23.003Z,29.67
2017-12-03T19:17:49.916Z,30.08
2017-12-03T19:20:16.947Z,33.60
2017-12-03T19:22:43.913Z,31.52
2017-12-03T19:25:10.829Z,30.98
2017-12-03T19:27:37.776Z,28.55
2017-12-03T19:30:04.652Z,28.30
2017-12-03T19:32:31.569Z,27.15
2017-12-03T19:34:58.531Z,26.75
2017-12-03T19:37:25.532Z,26.62
2017-12-03T19:39:52.516Z,27.05
2017-12-03T19:42:19.389Z,25.70
2017-12-03T19:44:46.321Z,27.02
2017-12-03T19:47:13.261Z,26.80
2017-12-03T19:49:40.192Z,23.52
2017-12-03T19:52:07.160Z,24.40
2017-12-03T19:54:34.166Z,27.42
2017-12-03T19:57:01.144Z,26.62
2017-12-03T19:59:28.083Z,25.20
2017-12-03T20:01:55.976Z,25.92
2017-12-03T20:04:22.855Z,28.50
2017-12-03T20:06:50.548Z,26.52
2017-12-03T20:09:17.441Z,28.77
2017-12-03T20:11:45.400Z,27.27
2017-12-03T20:14:13.379Z,28.23
2017-12-03T20:16:40.409Z,30.50
2017-12-03T20:19:07.414Z,31.70
2017-12-03T20:21:34.519Z,36.15
2017-12-03T20:24:01.536Z,32.60
2017-12-03T20:26:29.506Z,39.20
2017-12-03T20:28:56.440Z,37.67
2017-12-03T20:31:23.395Z,34.95
2017-12-03T20:33:51.110Z,33.58
2017-12-03T20:36:18.063Z,31.15
2017-12-03T20:38:45.016Z,30.75
2017-12-03T20:41:12.120Z,32.40
2017-12-03T20:43:39.149Z,30.42
2017-12-03T20:46:06.234Z,31.35
2017-12-03T20:48:33.807Z,29.20
2017-12-03T20:51:01.564Z,26.10
2017-12-03T20:53:28.679Z,30.17
2017-12-03T20:55:56.377Z,27.48
2017-12-03T20:58:24.243Z,27.60
2017-12-03T21:00:51.905Z,27.62
2017-12-03T21:03:19.563Z,27.33
2017-12-03T21:05:46.570Z,28.10
2017-12-03T21:08:13.644Z,28.50
2017-12-03T21:10:40.716Z,29.87
2017-12-03T21:13:07.688Z,27.10
2017-12-03T21:15:35.511Z,27.80
2017-12-03T21:18:02.461Z,27.58
2017-12-03T21:20:30.089Z,27.25
2017-12-03T21:22:57.163Z,25.62
2017-12-03T21:25:24.788Z,26.98
2017-12-03T21:27:51.741Z,28.02
2017-12-03T21:30:18.648Z,26.85
2017-12-03T21:32:45.630Z,23.25
2017-12-03T21:35:12.727Z,26.12
2017-12-03T21:37:39.757Z,25.60
2017-12-03T21:40:07.444Z,25.42
2017-12-03T21:42:34.348Z,26.05
2017-12-03T21:45:01.204Z,26.30
2017-12-03T21:47:29.007Z,28.17
2017-12-03T21:49:55.974Z,25.73
2017-12-03T21:52:23.644Z,25.25
2017-12-03T21:54:50.620Z,24.27
2017-12-03T21:57:17.586Z,22.92
2017-12-03T21:59:45.232Z,23.50
2017-12-03T22:02:12.920Z,24.67
2017-12-03T22:04:40.519Z,25.70
2017-12-03T22:07:07.416Z,23.87
2017-12-03T22:09:34.259Z,21.58
2017-12-03T22:12:01.143Z,20.60
2017-12-03T22:14:28.043Z,20.73
2017-12-03T22:16:55.776Z,17.95
2017-12-03T22:19:22.685Z,22.50
2017-12-03T22:21:49.575Z,19.50
2017-12-03T22:24:16.451Z,19.87
2017-12-03T22:26:44.082Z,20.08
2017-12-03T22:29:10.976Z,20.58
2017-12-03T22:31:37.855Z,18.33
2017-12-03T22:34:04.739Z,19.85
2017-12-03T22:36:31.663Z,17.73
2017-12-03T22:38:58.543Z,17.52
2017-12-03T22:41:25.642Z,19.62
2017-12-03T22:43:52.519Z,18.95
2017-12-03T22:46:19.394Z,17.27
2017-12-03T22:48:46.302Z,18.65
2017-12-03T22:51:13.187Z,18.10
2017-12-03T22:53:41.579Z,19.83
2017-12-03T22:56:08.512Z,20.55
2017-12-03T22:58:36.123Z,21.37
2017-12-03T23:01:03.766Z,22.73
2017-12-03T23:03:31.412Z,23.55
2017-12-03T23:05:58.352Z,25.73
2017-12-03T23:08:25.188Z,24.33
2017-12-03T23:10:52.074Z,24.17
2017-12-03T23:13:18.943Z,23.80
2017-12-03T23:15:45.818Z,22.02
2017-12-03T23:18:12.733Z,24.40
2017-12-03T23:20:40.306Z,24.42
2017-12-03T23:23:07.274Z,22.37
2017-12-03T23:25:34.176Z,21.75
2017-12-03T23:28:01.272Z,19.95
2017-12-03T23:30:28.211Z,21.85
2017-12-03T23:32:55.116Z,21.83
2017-12-03T23:35:22.023Z,21.75
2017-12-03T23:37:48.942Z,22.10
2017-12-03T23:40:15.835Z,20.88
2017-12-03T23:42:42.760Z,19.73
2017-12-03T23:45:09.671Z,22.60
2017-12-03T23:47:36.520Z,22.00
2017-12-03T23:50:03.429Z,19.90
2017-12-03T23:52:30.352Z,20.75
2017-12-03T23:54:57.305Z,19.08
2017-12-03T23:57:24.237Z,20.05
2017-12-03T23:59:51.201Z,19.80
